createdAt,value
2016-04-26T00:00:16.326Z,86.93
2016-04-26T00:00:59.125Z,87.5
2016-04-26T00:01:42.331Z,86.83
2016-04-26T00:02:26.675Z,87.21
2016-04-26T00:03:09.614Z,86.83
2016-04-26T00:03:52.555Z,86.55
2016-04-26T00:04:35.511Z,86.83
2016-04-26T00:05:18.483Z,87.21
2016-04-26T00:06:01.408Z,87.21
2016-04-26T00:06:44.348Z,86.93
2016-04-26T00:07:27.285Z,87.88
2016-04-26T00:08:10.226Z,88.45
2016-04-26T00:08:53.197Z,88.92
2016-04-26T00:09:36.137Z,88.82
2016-04-26T00:10:18.934Z,89.11
2016-04-26T00:11:01.874Z,89.3
2016-04-26T00:11:44.814Z,89.3
2016-04-26T00:12:27.751Z,90.06
2016-04-26T00:13:10.692Z,89.77
2016-04-26T00:13:53.617Z,89.96
2016-04-26T00:14:36.573Z,90.44
2016-04-26T00:15:19.510Z,90.72
2016-04-26T00:16:03.137Z,89.96
2016-04-26T00:16:46.562Z,88.73
2016-04-26T00:17:29.328Z,89.2
2016-04-26T00:18:12.253Z,89.49
2016-04-26T00:18:55.209Z,90.34
2016-04-26T00:19:38.133Z,89.3
2016-04-26T00:20:21.070Z,89.3
2016-04-26T00:21:04.011Z,88.92
2016-04-26T00:21:46.169Z,87.88
2016-04-26T00:22:29.122Z,87.59
2016-04-26T00:23:12.063Z,87.88
2016-04-26T00:23:55.003Z,87.88
2016-04-26T00:24:37.928Z,88.07
2016-04-26T00:25:20.866Z,88.17
2016-04-26T00:26:03.836Z,87.69
2016-04-26T00:26:46.777Z,87.21
2016-04-26T00:27:29.730Z,87.21
2016-04-26T00:28:12.670Z,88.45
2016-04-26T00:28:55.594Z,88.07
2016-04-26T00:29:38.566Z,88.54
2016-04-26T00:30:21.488Z,88.07
2016-04-26T00:31:04.522Z,88.07
2016-04-26T00:31:47.322Z,88.64
2016-04-26T00:32:30.887Z,88.64
2016-04-26T00:33:13.808Z,89.11
2016-04-26T00:33:56.765Z,88.82
2016-04-26T00:34:42.860Z,88.17
2016-04-26T00:35:25.845Z,88.26
2016-04-26T00:36:08.816Z,88.45
2016-04-26T00:36:51.788Z,88.82
2016-04-26T00:37:34.729Z,88.17
2016-04-26T00:38:17.697Z,87.78
2016-04-26T00:39:00.637Z,87.12
2016-04-26T00:39:43.609Z,87.5
2016-04-26T00:40:26.562Z,87.21
2016-04-26T00:41:09.534Z,87.12
2016-04-26T00:41:52.504Z,87.69
2016-04-26T00:42:35.476Z,87.69
2016-04-26T00:43:18.398Z,87.21
2016-04-26T00:44:01.384Z,87.12
2016-04-26T00:44:44.356Z,87.21
2016-04-26T00:45:27.325Z,86.46
2016-04-26T00:46:10.422Z,86.46
2016-04-26T00:46:52.939Z,86.46
2016-04-26T00:47:35.443Z,86.46
2016-04-26T00:48:18.428Z,86.55
2016-04-26T00:49:01.383Z,86.08
2016-04-26T00:49:44.338Z,86.32
2016-04-26T00:50:27.275Z,86.36
2016-04-26T00:51:10.232Z,86.04
2016-04-26T00:51:53.172Z,86.98
2016-04-26T00:52:36.144Z,86.98
2016-04-26T00:53:19.097Z,86.79
2016-04-26T00:54:02.069Z,86.22
2016-04-26T00:54:45.008Z,86.41
2016-04-26T00:55:27.977Z,86.41
2016-04-26T00:56:10.949Z,86.22
2016-04-26T00:56:53.904Z,86.7
2016-04-26T00:57:36.860Z,85.85
2016-04-26T00:58:19.813Z,85.57
2016-04-26T00:59:02.785Z,86.22
2016-04-26T00:59:45.725Z,86.41
2016-04-26T01:00:28.678Z,86.22
2016-04-26T01:01:12.321Z,86.51
2016-04-26T01:01:56.074Z,85.85
2016-04-26T01:02:38.982Z,86.04
2016-04-26T01:03:21.935Z,86.04
2016-04-26T01:04:04.877Z,85.94
2016-04-26T01:04:47.833Z,86.13
2016-04-26T01:05:30.770Z,85.85
2016-04-26T01:06:13.741Z,85.94
2016-04-26T01:06:56.697Z,86.04
2016-04-26T01:07:39.652Z,86.41
2016-04-26T01:08:22.606Z,86.7
2016-04-26T01:09:05.577Z,86.89
2016-04-26T01:09:48.548Z,86.13
2016-04-26T01:10:30.736Z,86.51
2016-04-26T01:11:13.693Z,86.7
2016-04-26T01:11:56.663Z,86.89
2016-04-26T01:12:39.619Z,86.04
2016-04-26T01:13:22.587Z,86.22
2016-04-26T01:14:05.529Z,86.32
2016-04-26T01:14:48.500Z,86.7
2016-04-26T01:15:31.421Z,86.98
2016-04-26T01:16:14.393Z,86.22
2016-04-26T01:16:59.396Z,85.85
2016-04-26T01:17:42.851Z,86.22
2016-04-26T01:18:25.820Z,86.22
2016-04-26T01:19:08.776Z,86.79
2016-04-26T01:19:51.717Z,86.7
2016-04-26T01:20:34.687Z,86.89
2016-04-26T01:21:17.656Z,86.79
2016-04-26T01:22:00.611Z,87.08
2016-04-26T01:22:43.584Z,86.41
2016-04-26T01:23:26.553Z,86.79
2016-04-26T01:24:09.492Z,86.79
2016-04-26T01:24:52.464Z,86.79
2016-04-26T01:25:35.436Z,86.89
2016-04-26T01:26:18.233Z,86.79
2016-04-26T01:27:01.188Z,86.6
2016-04-26T01:27:44.160Z,87.36
2016-04-26T01:28:27.113Z,87.46
2016-04-26T01:29:10.069Z,87.65
2016-04-26T01:29:53.056Z,87.46
2016-04-26T01:30:35.996Z,86.89
2016-04-26T01:31:18.808Z,86.79
2016-04-26T01:32:02.046Z,86.79
2016-04-26T01:32:45.016Z,86.79
2016-04-26T01:33:27.969Z,86.89
2016-04-26T01:34:10.957Z,87.36
2016-04-26T01:34:53.913Z,86.98
2016-04-26T01:35:36.869Z,87.46
2016-04-26T01:36:19.807Z,87.08
2016-04-26T01:37:02.762Z,87.32
2016-04-26T01:37:45.733Z,87.04
2016-04-26T01:38:28.718Z,87.6
2016-04-26T01:39:11.658Z,87.55
2016-04-26T01:39:54.630Z,87.13
2016-04-26T01:40:37.679Z,87.84
2016-04-26T01:41:20.632Z,87.6
2016-04-26T01:42:03.587Z,87.79
2016-04-26T01:42:46.576Z,87.32
2016-04-26T01:43:29.513Z,87.41
2016-04-26T01:44:12.468Z,87.51
2016-04-26T01:44:55.440Z,87.7
2016-04-26T01:45:38.411Z,87.7
2016-04-26T01:46:21.192Z,87.65
2016-04-26T01:47:04.415Z,88.55
2016-04-26T01:47:47.401Z,88.83
2016-04-26T01:48:30.354Z,88.26
2016-04-26T01:49:13.309Z,88.64
2016-04-26T01:49:56.281Z,88.36
2016-04-26T01:50:39.237Z,88.83
2016-04-26T01:51:22.190Z,89.31
2016-04-26T01:52:05.130Z,89.5
2016-04-26T01:52:48.087Z,89.06
2016-04-26T01:53:31.040Z,88.64
2016-04-26T01:54:13.995Z,89.21
2016-04-26T01:54:56.982Z,89.12
2016-04-26T01:55:39.923Z,88.87
2016-04-26T01:56:22.892Z,89.21
2016-04-26T01:57:05.831Z,89.69
2016-04-26T01:57:48.802Z,89.4
2016-04-26T01:58:31.740Z,89.31
2016-04-26T01:59:14.712Z,89.31
2016-04-26T01:59:57.667Z,89.21
2016-04-26T02:00:40.624Z,88.64
2016-04-26T02:01:23.577Z,89.31
2016-04-26T02:02:08.611Z,89.4
2016-04-26T02:02:51.300Z,89.54
2016-04-26T02:03:34.269Z,89.02
2016-04-26T02:04:17.225Z,88.93
2016-04-26T02:05:00.181Z,89.59
2016-04-26T02:05:43.152Z,89.97
2016-04-26T02:06:26.121Z,89.5
2016-04-26T02:07:09.078Z,89.69
2016-04-26T02:07:52.049Z,89.87
2016-04-26T02:08:35.002Z,88.74
2016-04-26T02:09:17.957Z,89.78
2016-04-26T02:10:00.914Z,89.5
2016-04-26T02:10:43.901Z,89.69
2016-04-26T02:11:26.838Z,89.78
2016-04-26T02:12:09.824Z,89.97
2016-04-26T02:12:52.781Z,89.87
2016-04-26T02:13:35.734Z,89.31
2016-04-26T02:14:18.705Z,89.4
2016-04-26T02:15:01.676Z,89.21
2016-04-26T02:15:44.679Z,89.59
2016-04-26T02:16:27.632Z,89.4
2016-04-26T02:17:11.760Z,89.5
2016-04-26T02:17:54.388Z,89.21
2016-04-26T02:18:37.201Z,89.12
2016-04-26T02:19:20.156Z,89.59
2016-04-26T02:20:03.112Z,89.87
2016-04-26T02:20:45.928Z,89.97
2016-04-26T02:21:28.896Z,89.87
2016-04-26T02:22:11.914Z,89.87
2016-04-26T02:22:54.877Z,89.69
2016-04-26T02:23:37.752Z,89.78
2016-04-26T02:24:20.708Z,89.78
2016-04-26T02:25:03.680Z,89.87
2016-04-26T02:25:46.651Z,89.87
2016-04-26T02:26:29.619Z,89.87
2016-04-26T02:27:12.622Z,90.25
2016-04-26T02:27:55.594Z,89.69
2016-04-26T02:28:38.563Z,90.34
2016-04-26T02:29:21.518Z,90.34
2016-04-26T02:30:04.474Z,90.34
2016-04-26T02:30:47.460Z,90.53
2016-04-26T02:31:30.445Z,90.34
2016-04-26T02:32:13.277Z,90.25
2016-04-26T02:32:56.935Z,90.16
2016-04-26T02:33:39.732Z,90.06
2016-04-26T02:34:22.703Z,90.44
2016-04-26T02:35:05.643Z,90.25
2016-04-26T02:35:48.631Z,90.25
2016-04-26T02:36:31.428Z,90.06
2016-04-26T02:37:14.384Z,90.53
2016-04-26T02:37:57.354Z,90.63
2016-04-26T02:38:40.323Z,90.53
2016-04-26T02:39:23.296Z,90.82
2016-04-26T02:40:06.251Z,90.53
2016-04-26T02:40:49.207Z,90.63
2016-04-26T02:41:32.160Z,90.53
2016-04-26T02:42:15.115Z,91.2
2016-04-26T02:42:58.102Z,90.63
2016-04-26T02:43:41.043Z,90.44
2016-04-26T02:44:24.012Z,91.01
2016-04-26T02:45:06.968Z,91.67
2016-04-26T02:45:49.970Z,91.48
2016-04-26T02:46:32.939Z,91.2
2016-04-26T02:47:15.613Z,91.1
2016-04-26T02:47:58.320Z,91.01
2016-04-26T02:48:41.291Z,91.1
2016-04-26T02:49:24.244Z,91.77
2016-04-26T02:50:07.230Z,91.01
2016-04-26T02:50:50.186Z,90.91
2016-04-26T02:51:32.968Z,90.72
2016-04-26T02:52:15.925Z,91.2
2016-04-26T02:52:58.895Z,90.53
2016-04-26T02:53:41.851Z,90.53
2016-04-26T02:54:24.835Z,91.2
2016-04-26T02:55:07.776Z,91.2
2016-04-26T02:55:50.731Z,91.2
2016-04-26T02:56:33.699Z,91.2
2016-04-26T02:57:16.656Z,91.01
2016-04-26T02:57:59.612Z,91.58
2016-04-26T02:58:42.552Z,91.48
2016-04-26T02:59:25.521Z,91.67
2016-04-26T03:00:08.477Z,91.2
2016-04-26T03:00:51.433Z,91.1
2016-04-26T03:01:34.386Z,91.29
2016-04-26T03:02:17.685Z,90.91
2016-04-26T03:03:00.625Z,91.39
2016-04-26T03:03:43.597Z,91.39
2016-04-26T03:04:26.550Z,91.58
2016-04-26T03:05:09.506Z,91.58
2016-04-26T03:05:52.493Z,91.39
2016-04-26T03:06:35.430Z,91.48
2016-04-26T03:07:18.401Z,91.48
2016-04-26T03:08:01.357Z,91.58
2016-04-26T03:08:44.329Z,91.58
2016-04-26T03:09:27.282Z,91.48
2016-04-26T03:10:10.269Z,91.67
2016-04-26T03:10:53.225Z,91.29
2016-04-26T03:11:36.178Z,91.2
2016-04-26T03:12:19.118Z,91.58
2016-04-26T03:13:02.074Z,91.39
2016-04-26T03:13:45.045Z,91.67
2016-04-26T03:14:27.998Z,91.58
2016-04-26T03:15:10.939Z,91.58
2016-04-26T03:15:53.894Z,91.58
2016-04-26T03:16:36.847Z,91.48
2016-04-26T03:17:19.868Z,91.58
2016-04-26T03:18:02.417Z,91.29
2016-04-26T03:18:45.451Z,91.39
2016-04-26T03:19:28.388Z,91.96
2016-04-26T03:20:11.343Z,91.48
2016-04-26T03:20:54.315Z,91.58
2016-04-26T03:21:37.284Z,91.48
2016-04-26T03:22:20.224Z,91.48
2016-04-26T03:23:03.195Z,91.58
2016-04-26T03:23:46.136Z,91.58
2016-04-26T03:24:29.104Z,91.58
2016-04-26T03:25:12.076Z,91.58
2016-04-26T03:25:55.064Z,91.58
2016-04-26T03:26:38.048Z,91.96
2016-04-26T03:27:21.003Z,91.58
2016-04-26T03:28:03.959Z,91.39
2016-04-26T03:28:46.900Z,91.86
2016-04-26T03:29:29.868Z,91.86
2016-04-26T03:30:12.808Z,91.86
2016-04-26T03:30:55.795Z,91.77
2016-04-26T03:31:39.858Z,91.67
2016-04-26T03:32:23.455Z,91.67
2016-04-26T03:33:06.316Z,91.67
2016-04-26T03:33:49.272Z,91.86
2016-04-26T03:34:32.256Z,91.77
2016-04-26T03:35:15.197Z,91.58
2016-04-26T03:35:58.168Z,92.14
2016-04-26T03:36:41.121Z,91.77
2016-04-26T03:37:24.108Z,91.86
2016-04-26T03:38:07.080Z,91.48
2016-04-26T03:38:50.052Z,91.48
2016-04-26T03:39:33.005Z,92.14
2016-04-26T03:40:15.976Z,91.86
2016-04-26T03:40:58.947Z,91.48
2016-04-26T03:41:41.903Z,91.67
2016-04-26T03:42:24.872Z,91.58
2016-04-26T03:43:07.827Z,91.86
2016-04-26T03:43:50.783Z,91.67
2016-04-26T03:44:33.752Z,91.67
2016-04-26T03:45:16.707Z,91.86
2016-04-26T03:45:59.664Z,91.96
2016-04-26T03:46:42.448Z,91.96
2016-04-26T03:47:25.870Z,91.58
2016-04-26T03:48:08.715Z,91.39
2016-04-26T03:48:51.672Z,91.48
2016-04-26T03:49:34.626Z,91.67
2016-04-26T03:50:17.581Z,91.48
2016-04-26T03:51:00.599Z,91.67
2016-04-26T03:51:43.555Z,91.67
2016-04-26T03:52:26.524Z,91.39
2016-04-26T03:53:09.526Z,91.29
2016-04-26T03:53:52.482Z,91.39
2016-04-26T03:54:35.420Z,91.48
2016-04-26T03:55:18.391Z,91.39
2016-04-26T03:56:01.347Z,91.29
2016-04-26T03:56:44.303Z,91.77
2016-04-26T03:57:27.256Z,91.58
2016-04-26T03:58:10.242Z,91.2
2016-04-26T03:58:53.184Z,91.48
2016-04-26T03:59:36.153Z,91.39
2016-04-26T04:00:19.123Z,91.39
2016-04-26T04:01:02.094Z,91.67
2016-04-26T04:01:46.051Z,91.77
2016-04-26T04:02:30.442Z,91.01
2016-04-26T04:03:13.366Z,90.91
2016-04-26T04:03:56.321Z,91.67
2016-04-26T04:04:39.258Z,91.58
2016-04-26T04:05:22.247Z,91.2
2016-04-26T04:06:05.202Z,90.82
2016-04-26T04:06:48.158Z,91.01
2016-04-26T04:07:31.127Z,91.01
2016-04-26T04:08:14.098Z,91.67
2016-04-26T04:08:57.069Z,91.2
2016-04-26T04:09:40.022Z,91.1
2016-04-26T04:10:23.019Z,91.01
2016-04-26T04:11:05.976Z,91.1
2016-04-26T04:11:48.931Z,90.82
2016-04-26T04:12:31.899Z,90.44
2016-04-26T04:13:14.871Z,90.34
2016-04-26T04:13:57.827Z,91.01
2016-04-26T04:14:40.765Z,90.91
2016-04-26T04:15:23.736Z,90.72
2016-04-26T04:16:06.707Z,90.34
2016-04-26T04:16:49.945Z,90.53
2016-04-26T04:17:34.398Z,90.63
2016-04-26T04:18:17.322Z,90.16
2016-04-26T04:19:00.278Z,89.78
2016-04-26T04:19:43.247Z,90.44
2016-04-26T04:20:26.203Z,89.97
2016-04-26T04:21:09.189Z,89.69
2016-04-26T04:21:52.130Z,90.25
2016-04-26T04:22:35.098Z,90.72
2016-04-26T04:23:18.054Z,90.53
2016-04-26T04:24:01.011Z,89.97
2016-04-26T04:24:43.981Z,90.25
2016-04-26T04:25:26.950Z,90.53
2016-04-26T04:26:09.922Z,90.06
2016-04-26T04:26:52.862Z,90.44
2016-04-26T04:27:35.847Z,89.97
2016-04-26T04:28:18.817Z,90.34
2016-04-26T04:29:01.602Z,89.78
2016-04-26T04:29:44.588Z,89.69
2016-04-26T04:30:27.526Z,90.06
2016-04-26T04:31:10.483Z,90.44
2016-04-26T04:31:54.376Z,90.53
2016-04-26T04:32:37.173Z,90.06
2016-04-26T04:33:19.706Z,90.16
2016-04-26T04:34:02.678Z,89.78
2016-04-26T04:34:45.633Z,90.25
2016-04-26T04:35:28.602Z,90.34
2016-04-26T04:36:11.574Z,90.34
2016-04-26T04:36:54.545Z,90.25
2016-04-26T04:37:37.513Z,90.53
2016-04-26T04:38:20.485Z,90.16
2016-04-26T04:39:03.441Z,89.87
2016-04-26T04:39:46.507Z,90.25
2016-04-26T04:40:29.475Z,89.69
2016-04-26T04:41:12.431Z,89.59
2016-04-26T04:41:55.418Z,90.34
2016-04-26T04:42:38.387Z,90.72
2016-04-26T04:43:21.343Z,90.34
2016-04-26T04:44:04.298Z,90.16
2016-04-26T04:44:47.270Z,90.25
2016-04-26T04:45:30.254Z,89.69
2016-04-26T04:46:13.210Z,89.97
2016-04-26T04:46:56.056Z,89.59
2016-04-26T04:47:38.775Z,89.21
2016-04-26T04:48:21.715Z,89.59
2016-04-26T04:49:04.687Z,89.21
2016-04-26T04:49:47.642Z,89.4
2016-04-26T04:50:30.611Z,89.59
2016-04-26T04:51:13.567Z,89.78
2016-04-26T04:51:56.539Z,89.31
2016-04-26T04:52:39.476Z,89.5
2016-04-26T04:53:22.463Z,89.5
2016-04-26T04:54:05.419Z,89.02
2016-04-26T04:54:48.406Z,89.25
2016-04-26T04:55:31.359Z,89.25
2016-04-26T04:56:14.299Z,88.78
2016-04-26T04:56:57.270Z,89.35
2016-04-26T04:57:40.255Z,89.16
2016-04-26T04:58:23.211Z,88.97
2016-04-26T04:59:06.183Z,88.21
2016-04-26T04:59:49.138Z,88.21
2016-04-26T05:00:32.075Z,88.31
2016-04-26T05:01:15.063Z,88.31
2016-04-26T05:01:58.659Z,87.65
2016-04-26T05:02:42.269Z,88.4
2016-04-26T05:03:25.177Z,88.59
2016-04-26T05:04:08.164Z,87.84
2016-04-26T05:04:51.136Z,87.93
2016-04-26T05:05:34.089Z,87.84
2016-04-26T05:06:17.060Z,87.65
2016-04-26T05:07:00.017Z,87.65
2016-04-26T05:07:42.955Z,87.46
2016-04-26T05:08:25.909Z,87.93
2016-04-26T05:09:08.897Z,87.17
2016-04-26T05:09:51.853Z,87.74
2016-04-26T05:10:34.838Z,87.27
2016-04-26T05:11:17.808Z,87.74
2016-04-26T05:12:00.749Z,86.79
2016-04-26T05:12:43.733Z,86.89
2016-04-26T05:13:26.688Z,86.98
2016-04-26T05:14:09.660Z,86.89
2016-04-26T05:14:52.616Z,86.7
2016-04-26T05:15:35.569Z,86.89
2016-04-26T05:16:18.540Z,86.98
2016-04-26T05:17:01.481Z,86.6
2016-04-26T05:17:44.949Z,86.89
2016-04-26T05:18:29.639Z,86.22
2016-04-26T05:19:12.612Z,86.04
2016-04-26T05:19:55.583Z,86.41
2016-04-26T05:20:38.568Z,85.94
2016-04-26T05:21:21.539Z,86.79
2016-04-26T05:22:04.510Z,85.85
2016-04-26T05:22:47.481Z,86.7
2016-04-26T05:23:30.309Z,86.32
2016-04-26T05:24:13.265Z,86.32
2016-04-26T05:24:56.237Z,86.6
2016-04-26T05:25:39.190Z,87.08
2016-04-26T05:26:22.161Z,86.7
2016-04-26T05:27:05.133Z,87.17
2016-04-26T05:27:48.104Z,87.84
2016-04-26T05:28:31.058Z,86.98
2016-04-26T05:29:14.029Z,86.6
2016-04-26T05:29:56.969Z,86.79
2016-04-26T05:30:39.906Z,86.79
2016-04-26T05:31:22.925Z,85.85
2016-04-26T05:32:07.225Z,85.94
2016-04-26T05:32:50.914Z,86.04
2016-04-26T05:33:33.852Z,86.51
2016-04-26T05:34:16.808Z,86.04
2016-04-26T05:34:59.764Z,86.41
2016-04-26T05:35:42.717Z,86.79
2016-04-26T05:36:25.672Z,85.85
2016-04-26T05:37:08.644Z,85.89
2016-04-26T05:37:51.615Z,85.89
2016-04-26T05:38:34.584Z,86.7
2016-04-26T05:39:17.540Z,86.18
2016-04-26T05:40:00.511Z,86.18
2016-04-26T05:40:43.465Z,85.7
2016-04-26T05:41:26.467Z,85.23
2016-04-26T05:42:09.438Z,85.42
2016-04-26T05:42:52.254Z,85.89
2016-04-26T05:43:35.223Z,85.61
2016-04-26T05:44:18.210Z,85.23
2016-04-26T05:45:01.181Z,85.13
2016-04-26T05:45:44.118Z,85.8
2016-04-26T05:46:27.074Z,85.04
2016-04-26T05:47:10.842Z,84.85
2016-04-26T05:47:54.861Z,84.94
2016-04-26T05:48:38.111Z,85.32
2016-04-26T05:49:21.129Z,85.04
2016-04-26T05:50:03.992Z,84.94
2016-04-26T05:50:46.695Z,84.94
2016-04-26T05:51:29.729Z,84.47
2016-04-26T05:52:12.684Z,84.94
2016-04-26T05:52:55.671Z,85.51
2016-04-26T05:53:38.625Z,85.13
2016-04-26T05:54:21.596Z,85.13
2016-04-26T05:55:04.567Z,84.28
2016-04-26T05:55:47.539Z,84.75
2016-04-26T05:56:30.492Z,84.38
2016-04-26T05:57:13.577Z,84.28
2016-04-26T05:57:56.801Z,84.19
2016-04-26T05:58:40.818Z,84
2016-04-26T05:59:24.306Z,84.85
2016-04-26T06:00:07.637Z,84.38
2016-04-26T06:00:50.811Z,83.9
2016-04-26T06:01:35.133Z,84.66
2016-04-26T06:02:17.980Z,83.24
2016-04-26T06:03:00.904Z,84.28
2016-04-26T06:03:44.685Z,82.76
2016-04-26T06:04:26.907Z,82.39
2016-04-26T06:05:09.926Z,83.24
2016-04-26T06:05:52.928Z,82.86
2016-04-26T06:06:35.928Z,83.71
2016-04-26T06:07:18.869Z,81.53
2016-04-26T06:08:01.871Z,81.53
2016-04-26T06:08:44.855Z,81.15
2016-04-26T06:09:27.827Z,81.86
2016-04-26T06:10:10.782Z,82.81
2016-04-26T06:10:53.754Z,82.43
2016-04-26T06:11:36.691Z,81.76
2016-04-26T06:12:19.663Z,81.1
2016-04-26T06:13:02.602Z,81.01
2016-04-26T06:13:45.384Z,81.1
2016-04-26T06:14:28.355Z,82.43
2016-04-26T06:15:11.327Z,80.34
2016-04-26T06:15:54.283Z,79.3
2016-04-26T06:16:37.252Z,78.54
2016-04-26T06:17:20.052Z,78.92
2016-04-26T06:18:04.007Z,79.39
2016-04-26T06:18:47.226Z,79.3
2016-04-26T06:19:30.229Z,78.83
2016-04-26T06:20:13.215Z,78.54
2016-04-26T06:20:56.203Z,79.11
2016-04-26T06:21:39.171Z,79.21
2016-04-26T06:22:21.318Z,78.83
2016-04-26T06:23:04.290Z,79.3
2016-04-26T06:23:47.258Z,77.97
2016-04-26T06:24:30.199Z,78.64
2016-04-26T06:25:13.216Z,79.68
2016-04-26T06:25:56.188Z,79.96
2016-04-26T06:26:39.188Z,80.06
2016-04-26T06:27:22.143Z,80.34
2016-04-26T06:28:05.084Z,81.38
2016-04-26T06:28:48.037Z,82.14
2016-04-26T06:29:35.446Z,83.94
2016-04-26T06:30:18.402Z,85.32
2016-04-26T06:31:01.374Z,85.7
2016-04-26T06:31:44.327Z,85.23
2016-04-26T06:32:28.360Z,86.08
2016-04-26T06:33:11.598Z,86.46
2016-04-26T06:33:54.381Z,86.55
2016-04-26T06:34:37.865Z,86.93
2016-04-26T06:35:20.728Z,87.88
2016-04-26T06:36:03.700Z,87.88
2016-04-26T06:36:46.653Z,88.92
2016-04-26T06:37:29.608Z,88.73
2016-04-26T06:38:11.001Z,89.58
2016-04-26T06:38:53.957Z,89.49
2016-04-26T06:39:36.894Z,89.77
2016-04-26T06:40:19.867Z,89.39
2016-04-26T06:41:02.838Z,89.87
2016-04-26T06:41:45.806Z,90.25
2016-04-26T06:42:28.777Z,90.25
2016-04-26T06:43:11.750Z,90.06
2016-04-26T06:43:54.705Z,90.34
2016-04-26T06:44:37.658Z,90.15
2016-04-26T06:45:20.630Z,89.96
2016-04-26T06:46:03.617Z,89.16
2016-04-26T06:46:46.586Z,89.87
2016-04-26T06:47:29.244Z,90.01
2016-04-26T06:48:12.435Z,89.96
2016-04-26T06:48:56.984Z,90.25
2016-04-26T06:49:39.952Z,90.25
2016-04-26T06:50:22.924Z,89.87
2016-04-26T06:51:05.896Z,89.39
2016-04-26T06:51:48.849Z,89.87
2016-04-26T06:52:31.820Z,89.87
2016-04-26T06:53:14.791Z,89.49
2016-04-26T06:53:57.779Z,89.77
2016-04-26T06:54:40.732Z,89.49
2016-04-26T06:55:23.704Z,88.92
2016-04-26T06:56:06.753Z,88.73
2016-04-26T06:56:49.799Z,88.92
2016-04-26T06:57:32.802Z,89.2
2016-04-26T06:58:15.758Z,89.77
2016-04-26T06:58:58.745Z,89.3
2016-04-26T06:59:41.698Z,89.68
2016-04-26T07:00:24.685Z,89.3
2016-04-26T07:01:07.641Z,89.39
2016-04-26T07:01:50.612Z,90.44
2016-04-26T07:02:36.956Z,90.72
2016-04-26T07:03:19.506Z,89.96
2016-04-26T07:04:04.259Z,89.87
2016-04-26T07:04:47.212Z,90.3
2016-04-26T07:05:30.184Z,90.67
2016-04-26T07:06:13.156Z,90.2
2016-04-26T07:06:56.142Z,90.2
2016-04-26T07:07:39.079Z,90.58
2016-04-26T07:08:22.067Z,91.05
2016-04-26T07:09:05.023Z,91.72
2016-04-26T07:09:47.992Z,91.05
2016-04-26T07:10:30.978Z,91.43
2016-04-26T07:11:13.965Z,91.72
2016-04-26T07:11:56.749Z,92.38
2016-04-26T07:12:39.749Z,92.29
2016-04-26T07:13:22.783Z,92.47
2016-04-26T07:14:05.817Z,92.38
2016-04-26T07:14:48.817Z,92.47
2016-04-26T07:15:31.805Z,92.47
2016-04-26T07:16:15.557Z,93.7
2016-04-26T07:16:58.560Z,93.7
2016-04-26T07:17:41.403Z,93.89
2016-04-26T07:18:24.094Z,93.89
2016-04-26T07:19:07.050Z,93.89
2016-04-26T07:19:50.019Z,94.37
2016-04-26T07:20:32.974Z,93.89
2016-04-26T07:21:15.930Z,93.7
2016-04-26T07:21:58.901Z,92.66
2016-04-26T07:22:41.874Z,93.99
2016-04-26T07:23:24.580Z,93.13
2016-04-26T07:24:07.567Z,92.47
2016-04-26T07:24:50.520Z,92.66
2016-04-26T07:25:33.507Z,92.66
2016-04-26T07:26:16.573Z,92.85
2016-04-26T07:26:59.623Z,92.94
2016-04-26T07:27:42.607Z,93.32
2016-04-26T07:28:25.563Z,93.7
2016-04-26T07:29:08.503Z,93.61
2016-04-26T07:29:51.459Z,93.51
2016-04-26T07:30:34.428Z,93.99
2016-04-26T07:31:17.445Z,93.61
2016-04-26T07:32:00.433Z,93.8
2016-04-26T07:32:44.386Z,92.47
2016-04-26T07:33:27.436Z,92.66
2016-04-26T07:34:13.234Z,92.57
2016-04-26T07:34:56.192Z,93.13
2016-04-26T07:35:39.160Z,91.95
2016-04-26T07:36:22.099Z,91.76
2016-04-26T07:37:05.071Z,92.33
2016-04-26T07:37:48.024Z,92.47
2016-04-26T07:38:30.981Z,92.47
2016-04-26T07:39:13.967Z,91.91
2016-04-26T07:39:56.923Z,92.47
2016-04-26T07:40:39.720Z,92.85
2016-04-26T07:41:22.691Z,92.94
2016-04-26T07:42:05.647Z,91.91
2016-04-26T07:42:48.600Z,91.91
2016-04-26T07:43:31.541Z,91.48
2016-04-26T07:44:14.511Z,91.86
2016-04-26T07:44:57.452Z,91.91
2016-04-26T07:45:40.421Z,91.53
2016-04-26T07:46:23.391Z,91.76
2016-04-26T07:47:06.395Z,92.43
2016-04-26T07:47:50.208Z,91.38
2016-04-26T07:48:35.007Z,92.43
2016-04-26T07:49:18.307Z,91.95
2016-04-26T07:50:01.278Z,92.52
2016-04-26T07:50:44.263Z,92.43
2016-04-26T07:51:27.218Z,93.37
2016-04-26T07:52:10.190Z,93.56
2016-04-26T07:52:53.177Z,92.24
2016-04-26T07:53:36.146Z,92.61
2016-04-26T07:54:19.085Z,92.52
2016-04-26T07:55:02.057Z,92.52
2016-04-26T07:55:45.026Z,92.9
2016-04-26T07:56:28.012Z,92.14
2016-04-26T07:57:10.985Z,91.76
2016-04-26T07:57:53.925Z,92.24
2016-04-26T07:58:36.894Z,92.61
2016-04-26T07:59:19.834Z,92.61
2016-04-26T08:00:02.790Z,92.61
2016-04-26T08:00:45.743Z,92.24
2016-04-26T08:01:28.729Z,92.24
2016-04-26T08:02:11.669Z,92.71
2016-04-26T08:02:54.642Z,92.99
2016-04-26T08:03:37.626Z,93.56
2016-04-26T08:04:20.690Z,94.04
2016-04-26T08:05:03.647Z,94.13
2016-04-26T08:05:46.600Z,92.61
2016-04-26T08:06:29.555Z,92.61
2016-04-26T08:07:12.527Z,91.76
2016-04-26T08:07:55.498Z,91.67
2016-04-26T08:08:38.451Z,92.52
2016-04-26T08:09:21.408Z,92.05
2016-04-26T08:10:04.395Z,91.57
2016-04-26T08:10:47.348Z,91.48
2016-04-26T08:11:30.303Z,92.8
2016-04-26T08:12:13.259Z,93.46
2016-04-26T08:12:56.434Z,93.84
2016-04-26T08:13:39.419Z,92.52
2016-04-26T08:14:22.374Z,91.48
2016-04-26T08:15:05.361Z,91.38
2016-04-26T08:15:48.299Z,91.95
2016-04-26T08:16:31.269Z,91.86
2016-04-26T08:17:14.241Z,92.38
2016-04-26T08:17:57.682Z,91.81
2016-04-26T08:18:41.822Z,91.14
2016-04-26T08:19:24.794Z,91.05
2016-04-26T08:20:06.938Z,90.48
2016-04-26T08:20:49.906Z,90.77
2016-04-26T08:21:32.861Z,90.95
2016-04-26T08:22:15.833Z,90.2
2016-04-26T08:22:58.805Z,89.91
2016-04-26T08:23:41.758Z,90.2
2016-04-26T08:24:24.573Z,90.39
2016-04-26T08:25:07.529Z,90.2
2016-04-26T08:25:50.482Z,89.72
2016-04-26T08:26:33.453Z,89.34
2016-04-26T08:27:16.409Z,89.91
2016-04-26T08:27:59.396Z,90.1
2016-04-26T08:28:42.356Z,90.48
2016-04-26T08:29:25.327Z,89.44
2016-04-26T08:30:08.286Z,90.39
2016-04-26T08:30:51.255Z,90.67
2016-04-26T08:31:34.252Z,90.29
2016-04-26T08:32:17.250Z,89.53
2016-04-26T08:33:00.528Z,89.25
2016-04-26T08:33:43.450Z,88.59
2016-04-26T08:34:26.511Z,89.72
2016-04-26T08:35:09.398Z,89.63
2016-04-26T08:35:52.460Z,88.49
2016-04-26T08:36:35.415Z,87.64
2016-04-26T08:37:18.245Z,86.98
2016-04-26T08:38:01.107Z,88.21
2016-04-26T08:38:44.060Z,88.87
2016-04-26T08:39:27.031Z,88.63
2016-04-26T08:40:10.016Z,87.3
2016-04-26T08:40:52.969Z,87.02
2016-04-26T08:41:35.962Z,86.93
2016-04-26T08:42:18.923Z,86.16
2016-04-26T08:43:01.915Z,85.69
2016-04-26T08:43:44.868Z,85.22
2016-04-26T08:44:27.846Z,85.13
2016-04-26T08:45:12.869Z,84.46
2016-04-26T08:45:55.858Z,84.94
2016-04-26T08:46:38.858Z,84.55
2016-04-26T08:47:21.799Z,85.5
2016-04-26T08:48:05.070Z,84.31
2016-04-26T08:48:49.132Z,82.79
2016-04-26T08:49:32.840Z,82.04
2016-04-26T08:50:15.814Z,81.75
2016-04-26T08:50:58.770Z,81.56
2016-04-26T08:51:41.723Z,82.04
2016-04-26T08:52:28.336Z,81.18
2016-04-26T08:53:12.730Z,82.42
2016-04-26T08:53:55.688Z,83.74
2016-04-26T08:54:38.641Z,84.69
2016-04-26T08:55:21.612Z,84.03
2016-04-26T08:56:04.569Z,82.32
2016-04-26T08:56:47.522Z,81.47
2016-04-26T08:57:32.868Z,81.85
2016-04-26T08:58:15.669Z,81.18
2016-04-26T08:58:58.625Z,80.71
2016-04-26T08:59:41.610Z,81.23
2016-04-26T09:00:24.612Z,80.56
2016-04-26T09:01:07.568Z,81.41
2016-04-26T09:01:50.537Z,81.51
2016-04-26T09:02:33.507Z,82.74
2016-04-26T09:03:16.340Z,82.36
2016-04-26T09:03:58.357Z,81.41
2016-04-26T09:04:41.170Z,78.38
2016-04-26T09:05:24.125Z,77.71
2016-04-26T09:06:07.082Z,78.28
2016-04-26T09:06:50.082Z,78.95
2016-04-26T09:07:32.881Z,76.14
2016-04-26T09:08:15.040Z,75.34
2016-04-26T09:08:58.011Z,75.72
2016-04-26T09:09:40.917Z,75.81
2016-04-26T09:10:23.873Z,76.57
2016-04-26T09:11:06.861Z,76.67
2016-04-26T09:11:49.798Z,76.48
2016-04-26T09:12:32.754Z,77.33
2016-04-26T09:13:15.741Z,77.24
2016-04-26T09:13:58.697Z,76.86
2016-04-26T09:14:41.650Z,76.95
2016-04-26T09:15:24.605Z,77.62
2016-04-26T09:16:07.577Z,76.86